Time;durP1;ratioP1;P1;durP2;ratioP2;P2;SDS_P1;SDS_P2;PMS_P1;PMS_P2;Temp;Humidity;BMP_temperature;BMP_pressure;BME280_temperature;BME280_humidity;BME280_pressure;Samples;Min_cycle;Max_cycle;Signal;HPM_P1;HPM_P2
2020/10/19 00:00:12;;;;;;;14.4;9.700001;;;;;;;5.53;86.86719;95851.09;;;;
2020/10/19 00:01:13;;;;;;;14.4;9.700001;;;;;;;5.53;86.86719;95851.09;;;;
2020/10/19 00:02:14;;;;;;;14.4;9.700001;;;;;;;5.53;86.86719;95851.09;;;;
2020/10/19 00:03:14;;;;;;;14.4;9.700001;;;;;;;5.53;86.86719;95851.09;;;;
2020/10/19 00:04:15;;;;;;;14.4;9.700001;;;;;;;5.53;86.86719;95851.09;;;;
2020/10/19 00:05:16;;;;;;;14.4;9.700001;;;;;;;5.53;86.86719;95851.09;;;;
2020/10/19 00:06:17;;;;;;;14.4;9.700001;;;;;;;5.53;86.86719;95851.09;;;;
2020/10/19 00:07:17;;;;;;;14.4;9.700001;;;;;;;5.53;86.86719;95851.09;;;;
2020/10/19 00:08:18;;;;;;;14.7;10.25;;;;;;;5.67;86.71484;95857.39;;;;
2020/10/19 00:09:19;;;;;;;14.7;10.25;;;;;;;5.67;86.71484;95857.39;;;;
2020/10/19 00:10:19;;;;;;;14.7;10.25;;;;;;;5.67;86.71484;95857.39;;;;
2020/10/19 00:11:20;;;;;;;14.7;10.25;;;;;;;5.67;86.71484;95857.39;;;;
2020/10/19 00:12:20;;;;;;;14.7;10.25;;;;;;;5.67;86.71484;95857.39;;;;
2020/10/19 00:13:21;;;;;;;14.7;10.25;;;;;;;5.67;86.71484;95857.39;;;;
2020/10/19 00:14:21;;;;;;;14.7;10.25;;;;;;;5.67;86.71484;95857.39;;;;
2020/10/19 00:15:22;;;;;;;14.7;10.25;;;;;;;5.67;86.71484;95857.39;;;;
2020/10/19 00:16:23;;;;;;;14.7;10.25;;;;;;;5.67;86.71484;95857.39;;;;
2020/10/19 00:17:23;;;;;;;14.7;10.25;;;;;;;5.67;86.71484;95857.39;;;;
2020/10/19 00:18:24;;;;;;;14.7;10.25;;;;;;;5.67;86.71484;95857.39;;;;
2020/10/19 00:19:24;;;;;;;12.95;9.8;;;;;;;5.72;86.8418;95847.38;;;;
2020/10/19 00:20:25;;;;;;;12.95;9.8;;;;;;;5.72;86.8418;95847.38;;;;
2020/10/19 00:21:25;;;;;;;12.95;9.8;;;;;;;5.72;86.8418;95847.38;;;;
2020/10/19 00:22:26;;;;;;;12.95;9.8;;;;;;;5.72;86.8418;95847.38;;;;
2020/10/19 00:23:27;;;;;;;12.95;9.8;;;;;;;5.72;86.8418;95847.38;;;;
2020/10/19 00:24:27;;;;;;;12.95;9.8;;;;;;;5.72;86.8418;95847.38;;;;
2020/10/19 00:25:28;;;;;;;12.95;9.8;;;;;;;5.72;86.8418;95847.38;;;;
2020/10/19 00:26:28;;;;;;;12.95;9.8;;;;;;;5.72;86.8418;95847.38;;;;
2020/10/19 00:27:29;;;;;;;12.95;9.8;;;;;;;5.72;86.8418;95847.38;;;;
2020/10/19 00:28:29;;;;;;;12.95;9.8;;;;;;;5.72;86.8418;95847.38;;;;
2020/10/19 00:29:30;;;;;;;13.75;8.950001;;;;;;;5.79;87.18359;95847.85;;;;
2020/10/19 00:30:30;;;;;;;13.75;8.950001;;;;;;;5.79;87.18359;95847.85;;;;
2020/10/19 00:31:31;;;;;;;13.75;8.950001;;;;;;;5.79;87.18359;95847.85;;;;
2020/10/19 00:32:31;;;;;;;13.75;8.950001;;;;;;;5.79;87.18359;95847.85;;;;
2020/10/19 00:33:32;;;;;;;13.75;8.950001;;;;;;;5.79;87.18359;95847.85;;;;
2020/10/19 00:34:33;;;;;;;13.75;8.950001;;;;;;;5.79;87.18359;95847.85;;;;
2020/10/19 00:35:33;;;;;;;13.75;8.950001;;;;;;;5.79;87.18359;95847.85;;;;
2020/10/19 00:36:33;;;;;;;13.75;8.950001;;;;;;;5.79;87.18359;95847.85;;;;
2020/10/19 00:37:34;;;;;;;13.75;8.950001;;;;;;;5.79;87.18359;95847.85;;;;
2020/10/19 00:38:35;;;;;;;13.75;8.950001;;;;;;;5.79;87.18359;95847.85;;;;
2020/10/19 00:39:35;;;;;;;13.75;8.950001;;;;;;;5.79;87.18359;95847.85;;;;
2020/10/19 00:40:36;;;;;;;11.95;8.400001;;;;;;;5.86;87.59766;95858.14;;;;
2020/10/19 00:41:37;;;;;;;11.95;8.400001;;;;;;;5.86;87.59766;95858.14;;;;
2020/10/19 00:42:37;;;;;;;11.95;8.400001;;;;;;;5.86;87.59766;95858.14;;;;
2020/10/19 00:43:38;;;;;;;11.95;8.400001;;;;;;;5.86;87.59766;95858.14;;;;
2020/10/19 00:44:38;;;;;;;11.95;8.400001;;;;;;;5.86;87.59766;95858.14;;;;
2020/10/19 00:45:39;;;;;;;11.95;8.400001;;;;;;;5.86;87.59766;95858.14;;;;
2020/10/19 00:46:40;;;;;;;11.95;8.400001;;;;;;;5.86;87.59766;95858.14;;;;
2020/10/19 00:47:40;;;;;;;11.95;8.400001;;;;;;;5.86;87.59766;95858.14;;;;
2020/10/19 00:48:41;;;;;;;11.95;8.400001;;;;;;;5.86;87.59766;95858.14;;;;
2020/10/19 00:49:42;;;;;;;11.95;8.400001;;;;;;;5.86;87.59766;95858.14;;;;
2020/10/19 00:50:42;;;;;;;11.75;7.9;;;;;;;5.92;87.72559;95853.33;;;;
2020/10/19 00:51:43;;;;;;;11.75;7.9;;;;;;;5.92;87.72559;95853.33;;;;
2020/10/19 00:52:44;;;;;;;11.75;7.9;;;;;;;5.92;87.72559;95853.33;;;;
2020/10/19 00:53:45;;;;;;;11.75;7.9;;;;;;;5.92;87.72559;95853.33;;;;
2020/10/19 00:54:46;;;;;;;11.75;7.9;;;;;;;5.92;87.72559;95853.33;;;;
2020/10/19 00:55:47;;;;;;;11.75;7.9;;;;;;;5.92;87.72559;95853.33;;;;
2020/10/19 00:56:47;;;;;;;11.75;7.9;;;;;;;5.92;87.72559;95853.33;;;;
2020/10/19 00:57:49;;;;;;;11.75;7.9;;;;;;;5.92;87.72559;95853.33;;;;
2020/10/19 00:58:50;;;;;;;11.75;7.9;;;;;;;5.92;87.72559;95853.33;;;;
2020/10/19 00:59:51;;;;;;;11.75;7.9;;;;;;;5.92;87.72559;95853.33;;;;
2020/10/19 01:00:51;;;;;;;11.75;7.9;;;;;;;5.92;87.72559;95853.33;;;;
2020/10/19 01:01:52;;;;;;;9.450001;7.45;;;;;;;5.98;87.87598;95847.63;;;;
2020/10/19 01:02:53;;;;;;;9.450001;7.45;;;;;;;5.98;87.87598;95847.63;;;;
2020/10/19 01:03:54;;;;;;;9.450001;7.45;;;;;;;5.98;87.87598;95847.63;;;;
2020/10/19 01:04:54;;;;;;;9.450001;7.45;;;;;;;5.98;87.87598;95847.63;;;;
2020/10/19 01:05:55;;;;;;;9.450001;7.45;;;;;;;5.98;87.87598;95847.63;;;;
2020/10/19 01:06:55;;;;;;;9.450001;7.45;;;;;;;5.98;87.87598;95847.63;;;;
2020/10/19 01:07:56;;;;;;;9.450001;7.45;;;;;;;5.98;87.87598;95847.63;;;;
2020/10/19 01:08:56;;;;;;;9.450001;7.45;;;;;;;5.98;87.87598;95847.63;;;;
2020/10/19 01:09:57;;;;;;;9.450001;7.45;;;;;;;5.98;87.87598;95847.63;;;;
2020/10/19 01:10:58;;;;;;;9.450001;7.45;;;;;;;5.98;87.87598;95847.63;;;;
2020/10/19 01:11:58;;;;;;;10.35;7.349999;;;;;;;6.04;88.12109;95828.09;;;;
2020/10/19 01:12:59;;;;;;;10.35;7.349999;;;;;;;6.04;88.12109;95828.09;;;;
2020/10/19 01:13:59;;;;;;;10.35;7.349999;;;;;;;6.04;88.12109;95828.09;;;;
2020/10/19 01:15:00;;;;;;;10.35;7.349999;;;;;;;6.04;88.12109;95828.09;;;;
2020/10/19 01:16:00;;;;;;;10.35;7.349999;;;;;;;6.04;88.12109;95828.09;;;;
2020/10/19 01:17:01;;;;;;;10.35;7.349999;;;;;;;6.04;88.12109;95828.09;;;;
2020/10/19 01:18:02;;;;;;;10.35;7.349999;;;;;;;6.04;88.12109;95828.09;;;;
2020/10/19 01:19:02;;;;;;;10.35;7.349999;;;;;;;6.04;88.12109;95828.09;;;;
2020/10/19 01:20:03;;;;;;;10.35;7.349999;;;;;;;6.04;88.12109;95828.09;;;;
2020/10/19 01:21:05;;;;;;;10.35;7.349999;;;;;;;6.04;88.12109;95828.09;;;;
2020/10/19 01:22:07;;;;;;;10.35;7.349999;;;;;;;6.04;88.12109;95828.09;;;;
2020/10/19 01:23:09;;;;;;;11.8;8.050001;;;;;;;6.07;88.44336;95824.1;;;;
2020/10/19 01:24:12;;;;;;;11.8;8.050001;;;;;;;6.07;88.44336;95824.1;;;;
2020/10/19 01:25:13;;;;;;;11.8;8.050001;;;;;;;6.07;88.44336;95824.1;;;;
2020/10/19 01:26:14;;;;;;;11.8;8.050001;;;;;;;6.07;88.44336;95824.1;;;;
2020/10/19 01:27:20;;;;;;;11.8;8.050001;;;;;;;6.07;88.44336;95824.1;;;;
2020/10/19 01:28:20;;;;;;;11.8;8.050001;;;;;;;6.07;88.44336;95824.1;;;;
2020/10/19 01:29:21;;;;;;;11.8;8.050001;;;;;;;6.07;88.44336;95824.1;;;;
2020/10/19 01:30:21;;;;;;;11.8;8.050001;;;;;;;6.07;88.44336;95824.1;;;;
2020/10/19 01:31:22;;;;;;;11.8;8.050001;;;;;;;6.07;88.44336;95824.1;;;;
2020/10/19 01:32:23;;;;;;;11.8;8.050001;;;;;;;6.07;88.44336;95824.1;;;;
2020/10/19 01:33:23;;;;;;;10.15;7.5;;;;;;;6.09;88.6582;95816.69;;;;
2020/10/19 01:34:24;;;;;;;10.15;7.5;;;;;;;6.09;88.6582;95816.69;;;;
2020/10/19 01:35:24;;;;;;;10.15;7.5;;;;;;;6.09;88.6582;95816.69;;;;
2020/10/19 01:36:25;;;;;;;10.15;7.5;;;;;;;6.09;88.6582;95816.69;;;;
2020/10/19 01:37:25;;;;;;;10.15;7.5;;;;;;;6.09;88.6582;95816.69;;;;
2020/10/19 01:38:26;;;;;;;10.15;7.5;;;;;;;6.09;88.6582;95816.69;;;;
2020/10/19 01:39:26;;;;;;;10.15;7.5;;;;;;;6.09;88.6582;95816.69;;;;
2020/10/19 01:40:27;;;;;;;10.15;7.5;;;;;;;6.09;88.6582;95816.69;;;;
2020/10/19 01:41:27;;;;;;;10.15;7.5;;;;;;;6.09;88.6582;95816.69;;;;
2020/10/19 01:42:28;;;;;;;10.15;7.5;;;;;;;6.09;88.6582;95816.69;;;;
2020/10/19 01:43:28;;;;;;;10.15;7.5;;;;;;;6.09;88.6582;95816.69;;;;
2020/10/19 01:44:29;;;;;;;9.950001;7.399999;;;;;;;6.13;88.75195;95807.2;;;;
2020/10/19 01:45:29;;;;;;;9.950001;7.399999;;;;;;;6.13;88.75195;95807.2;;;;
2020/10/19 01:46:30;;;;;;;9.950001;7.399999;;;;;;;6.13;88.75195;95807.2;;;;
2020/10/19 01:47:32;;;;;;;9.950001;7.399999;;;;;;;6.13;88.75195;95807.2;;;;
2020/10/19 01:48:32;;;;;;;9.950001;7.399999;;;;;;;6.13;88.75195;95807.2;;;;
2020/10/19 01:49:33;;;;;;;9.950001;7.399999;;;;;;;6.13;88.75195;95807.2;;;;
2020/10/19 01:50:33;;;;;;;9.950001;7.399999;;;;;;;6.13;88.75195;95807.2;;;;
2020/10/19 01:51:34;;;;;;;9.950001;7.399999;;;;;;;6.13;88.75195;95807.2;;;;
2020/10/19 01:52:34;;;;;;;9.950001;7.399999;;;;;;;6.13;88.75195;95807.2;;;;
2020/10/19 01:53:35;;;;;;;9.950001;7.399999;;;;;;;6.13;88.75195;95807.2;;;;
2020/10/19 01:54:35;;;;;;;11.4;8.4;;;;;;;6.15;88.71191;95809.72;;;;
2020/10/19 01:55:36;;;;;;;11.4;8.4;;;;;;;6.15;88.71191;95809.72;;;;
2020/10/19 01:56:36;;;;;;;11.4;8.4;;;;;;;6.15;88.71191;95809.72;;;;
2020/10/19 01:57:37;;;;;;;11.4;8.4;;;;;;;6.15;88.71191;95809.72;;;;
2020/10/19 01:58:37;;;;;;;11.4;8.4;;;;;;;6.15;88.71191;95809.72;;;;
2020/10/19 01:59:38;;;;;;;11.4;8.4;;;;;;;6.15;88.71191;95809.72;;;;
2020/10/19 02:00:38;;;;;;;11.4;8.4;;;;;;;6.15;88.71191;95809.72;;;;
2020/10/19 02:01:39;;;;;;;11.4;8.4;;;;;;;6.15;88.71191;95809.72;;;;
2020/10/19 02:02:40;;;;;;;11.4;8.4;;;;;;;6.15;88.71191;95809.72;;;;
2020/10/19 02:03:40;;;;;;;11.4;8.4;;;;;;;6.15;88.71191;95809.72;;;;
2020/10/19 02:04:41;;;;;;;11.4;8.4;;;;;;;6.15;88.71191;95809.72;;;;
2020/10/19 02:05:42;;;;;;;11.15;8.35;;;;;;;6.15;88.89258;95797.13;;;;
2020/10/19 02:06:42;;;;;;;11.15;8.35;;;;;;;6.15;88.89258;95797.13;;;;
2020/10/19 02:07:43;;;;;;;11.15;8.35;;;;;;;6.15;88.89258;95797.13;;;;
2020/10/19 02:08:43;;;;;;;11.15;8.35;;;;;;;6.15;88.89258;95797.13;;;;
2020/10/19 02:09:44;;;;;;;11.15;8.35;;;;;;;6.15;88.89258;95797.13;;;;
2020/10/19 02:10:44;;;;;;;11.15;8.35;;;;;;;6.15;88.89258;95797.13;;;;
2020/10/19 02:11:45;;;;;;;11.15;8.35;;;;;;;6.15;88.89258;95797.13;;;;
2020/10/19 02:12:45;;;;;;;11.15;8.35;;;;;;;6.15;88.89258;95797.13;;;;
2020/10/19 02:13:46;;;;;;;11.15;8.35;;;;;;;6.15;88.89258;95797.13;;;;
2020/10/19 02:14:46;;;;;;;11.15;8.35;;;;;;;6.15;88.89258;95797.13;;;;
2020/10/19 02:15:47;;;;;;;11.15;8.35;;;;;;;6.15;88.89258;95797.13;;;;
2020/10/19 02:16:48;;;;;;;13.65;8.999999;;;;;;;6.17;89.07422;95797.34;;;;
2020/10/19 02:17:48;;;;;;;13.65;8.999999;;;;;;;6.17;89.07422;95797.34;;;;
2020/10/19 02:18:49;;;;;;;13.65;8.999999;;;;;;;6.17;89.07422;95797.34;;;;
2020/10/19 02:19:50;;;;;;;13.65;8.999999;;;;;;;6.17;89.07422;95797.34;;;;
2020/10/19 02:20:50;;;;;;;13.65;8.999999;;;;;;;6.17;89.07422;95797.34;;;;
2020/10/19 02:21:51;;;;;;;13.65;8.999999;;;;;;;6.17;89.07422;95797.34;;;;
2020/10/19 02:22:51;;;;;;;13.65;8.999999;;;;;;;6.17;89.07422;95797.34;;;;
2020/10/19 02:23:52;;;;;;;13.65;8.999999;;;;;;;6.17;89.07422;95797.34;;;;
2020/10/19 02:24:52;;;;;;;13.65;8.999999;;;;;;;6.17;89.07422;95797.34;;;;
2020/10/19 02:25:53;;;;;;;13.65;8.999999;;;;;;;6.17;89.07422;95797.34;;;;
2020/10/19 02:26:53;;;;;;;13.15;9.749999;;;;;;;6.14;89.35254;95811.65;;;;
2020/10/19 02:27:54;;;;;;;13.15;9.749999;;;;;;;6.14;89.35254;95811.65;;;;
2020/10/19 02:28:54;;;;;;;13.15;9.749999;;;;;;;6.14;89.35254;95811.65;;;;
2020/10/19 02:29:55;;;;;;;13.15;9.749999;;;;;;;6.14;89.35254;95811.65;;;;
2020/10/19 02:30:55;;;;;;;13.15;9.749999;;;;;;;6.14;89.35254;95811.65;;;;
2020/10/19 02:31:56;;;;;;;13.15;9.749999;;;;;;;6.14;89.35254;95811.65;;;;
2020/10/19 02:32:57;;;;;;;13.15;9.749999;;;;;;;6.14;89.35254;95811.65;;;;
2020/10/19 02:33:57;;;;;;;13.15;9.749999;;;;;;;6.14;89.35254;95811.65;;;;
2020/10/19 02:34:58;;;;;;;13.15;9.749999;;;;;;;6.14;89.35254;95811.65;;;;
2020/10/19 02:35:58;;;;;;;13.15;9.749999;;;;;;;6.14;89.35254;95811.65;;;;
2020/10/19 02:36:59;;;;;;;13.15;9.749999;;;;;;;6.14;89.35254;95811.65;;;;
2020/10/19 02:38:00;;;;;;;15.35;10.75;;;;;;;6.13;89.81543;95806.82;;;;
2020/10/19 02:39:00;;;;;;;15.35;10.75;;;;;;;6.13;89.81543;95806.82;;;;
2020/10/19 02:40:01;;;;;;;15.35;10.75;;;;;;;6.13;89.81543;95806.82;;;;
2020/10/19 02:41:03;;;;;;;15.35;10.75;;;;;;;6.13;89.81543;95806.82;;;;
2020/10/19 02:42:05;;;;;;;15.35;10.75;;;;;;;6.13;89.81543;95806.82;;;;
2020/10/19 02:43:05;;;;;;;15.35;10.75;;;;;;;6.13;89.81543;95806.82;;;;
2020/10/19 02:44:06;;;;;;;15.35;10.75;;;;;;;6.13;89.81543;95806.82;;;;
2020/10/19 02:45:07;;;;;;;15.35;10.75;;;;;;;6.13;89.81543;95806.82;;;;
2020/10/19 02:46:08;;;;;;;15.35;10.75;;;;;;;6.13;89.81543;95806.82;;;;
2020/10/19 02:47:08;;;;;;;15.35;10.75;;;;;;;6.13;89.81543;95806.82;;;;
2020/10/19 02:48:09;;;;;;;16.65;11.15;;;;;;;6.21;90.04297;95813.78;;;;
2020/10/19 02:49:09;;;;;;;16.65;11.15;;;;;;;6.21;90.04297;95813.78;;;;
2020/10/19 02:50:10;;;;;;;16.65;11.15;;;;;;;6.21;90.04297;95813.78;;;;
2020/10/19 02:51:11;;;;;;;16.65;11.15;;;;;;;6.21;90.04297;95813.78;;;;
2020/10/19 02:52:12;;;;;;;16.65;11.15;;;;;;;6.21;90.04297;95813.78;;;;
2020/10/19 02:53:12;;;;;;;16.65;11.15;;;;;;;6.21;90.04297;95813.78;;;;
2020/10/19 02:54:13;;;;;;;16.65;11.15;;;;;;;6.21;90.04297;95813.78;;;;
2020/10/19 02:55:13;;;;;;;16.65;11.15;;;;;;;6.21;90.04297;95813.78;;;;
2020/10/19 02:56:14;;;;;;;16.65;11.15;;;;;;;6.21;90.04297;95813.78;;;;
2020/10/19 02:57:14;;;;;;;16.65;11.15;;;;;;;6.21;90.04297;95813.78;;;;
2020/10/19 02:58:15;;;;;;;16.65;11.15;;;;;;;6.21;90.04297;95813.78;;;;
2020/10/19 02:59:15;;;;;;;17.75;12;;;;;;;6.3;90.04004;95808.58;;;;
2020/10/19 03:00:16;;;;;;;17.75;12;;;;;;;6.3;90.04004;95808.58;;;;
2020/10/19 03:01:19;;;;;;;17.75;12;;;;;;;6.3;90.04004;95808.58;;;;
2020/10/19 03:02:20;;;;;;;17.75;12;;;;;;;6.3;90.04004;95808.58;;;;
2020/10/19 03:03:20;;;;;;;17.75;12;;;;;;;6.3;90.04004;95808.58;;;;
2020/10/19 03:04:20;;;;;;;17.75;12;;;;;;;6.3;90.04004;95808.58;;;;
2020/10/19 03:05:21;;;;;;;17.75;12;;;;;;;6.3;90.04004;95808.58;;;;
2020/10/19 03:06:22;;;;;;;17.75;12;;;;;;;6.3;90.04004;95808.58;;;;
2020/10/19 03:07:22;;;;;;;17.75;12;;;;;;;6.3;90.04004;95808.58;;;;
2020/10/19 03:08:25;;;;;;;17.75;12;;;;;;;6.3;90.04004;95808.58;;;;
2020/10/19 03:09:25;;;;;;;17.7;11.55;;;;;;;6.36;90.17773;95811.91;;;;
2020/10/19 03:10:26;;;;;;;17.7;11.55;;;;;;;6.36;90.17773;95811.91;;;;
2020/10/19 03:11:26;;;;;;;17.7;11.55;;;;;;;6.36;90.17773;95811.91;;;;
2020/10/19 03:12:27;;;;;;;17.7;11.55;;;;;;;6.36;90.17773;95811.91;;;;
2020/10/19 03:13:27;;;;;;;17.7;11.55;;;;;;;6.36;90.17773;95811.91;;;;
2020/10/19 03:14:28;;;;;;;17.7;11.55;;;;;;;6.36;90.17773;95811.91;;;;
2020/10/19 03:15:29;;;;;;;17.7;11.55;;;;;;;6.36;90.17773;95811.91;;;;
2020/10/19 03:16:29;;;;;;;17.7;11.55;;;;;;;6.36;90.17773;95811.91;;;;
2020/10/19 03:17:30;;;;;;;17.7;11.55;;;;;;;6.36;90.17773;95811.91;;;;
2020/10/19 03:18:30;;;;;;;17.7;11.55;;;;;;;6.36;90.17773;95811.91;;;;
2020/10/19 03:19:31;;;;;;;17.7;11.55;;;;;;;6.36;90.17773;95811.91;;;;
2020/10/19 03:20:31;;;;;;;16.05;11.35;;;;;;;6.41;90.29492;95812.98;;;;
2020/10/19 03:21:32;;;;;;;16.05;11.35;;;;;;;6.41;90.29492;95812.98;;;;
2020/10/19 03:22:32;;;;;;;16.05;11.35;;;;;;;6.41;90.29492;95812.98;;;;
2020/10/19 03:23:33;;;;;;;16.05;11.35;;;;;;;6.41;90.29492;95812.98;;;;
2020/10/19 03:24:33;;;;;;;16.05;11.35;;;;;;;6.41;90.29492;95812.98;;;;
2020/10/19 03:25:34;;;;;;;16.05;11.35;;;;;;;6.41;90.29492;95812.98;;;;
2020/10/19 03:26:35;;;;;;;16.05;11.35;;;;;;;6.41;90.29492;95812.98;;;;
2020/10/19 03:27:35;;;;;;;16.05;11.35;;;;;;;6.41;90.29492;95812.98;;;;
2020/10/19 03:28:36;;;;;;;16.05;11.35;;;;;;;6.41;90.29492;95812.98;;;;
2020/10/19 03:29:36;;;;;;;16.05;11.35;;;;;;;6.41;90.29492;95812.98;;;;
2020/10/19 03:30:37;;;;;;;18.45;11.45;;;;;;;6.37;90.46484;95805.11;;;;
2020/10/19 03:31:37;;;;;;;18.45;11.45;;;;;;;6.37;90.46484;95805.11;;;;
2020/10/19 03:32:38;;;;;;;18.45;11.45;;;;;;;6.37;90.46484;95805.11;;;;
2020/10/19 03:33:38;;;;;;;18.45;11.45;;;;;;;6.37;90.46484;95805.11;;;;
2020/10/19 03:34:39;;;;;;;18.45;11.45;;;;;;;6.37;90.46484;95805.11;;;;
2020/10/19 03:35:40;;;;;;;18.45;11.45;;;;;;;6.37;90.46484;95805.11;;;;
2020/10/19 03:36:41;;;;;;;18.45;11.45;;;;;;;6.37;90.46484;95805.11;;;;
2020/10/19 03:37:42;;;;;;;18.45;11.45;;;;;;;6.37;90.46484;95805.11;;;;
2020/10/19 03:38:42;;;;;;;18.45;11.45;;;;;;;6.37;90.46484;95805.11;;;;
2020/10/19 03:39:43;;;;;;;18.45;11.45;;;;;;;6.37;90.46484;95805.11;;;;
2020/10/19 03:40:43;;;;;;;18.45;11.45;;;;;;;6.37;90.46484;95805.11;;;;
2020/10/19 03:41:45;;;;;;;17.65;11.85;;;;;;;6.31;90.91895;95802.17;;;;
2020/10/19 03:42:57;;;;;;;17.65;11.85;;;;;;;6.31;90.91895;95802.17;;;;
2020/10/19 03:44:07;;;;;;;17.65;11.85;;;;;;;6.31;90.91895;95802.17;;;;
2020/10/19 03:45:10;;;;;;;17.65;11.85;;;;;;;6.31;90.91895;95802.17;;;;
2020/10/19 03:46:10;;;;;;;17.65;11.85;;;;;;;6.31;90.91895;95802.17;;;;
2020/10/19 03:47:13;;;;;;;17.65;11.85;;;;;;;6.31;90.91895;95802.17;;;;
2020/10/19 03:48:21;;;;;;;17.65;11.85;;;;;;;6.31;90.91895;95802.17;;;;
2020/10/19 03:49:27;;;;;;;17.65;11.85;;;;;;;6.31;90.91895;95802.17;;;;
2020/10/19 03:50:36;;;;;;;17.65;11.85;;;;;;;6.31;90.91895;95802.17;;;;
2020/10/19 03:51:37;;;;;;;17.65;11.85;;;;;;;6.31;90.91895;95802.17;;;;
2020/10/19 03:52:43;;;;;;;17.8;12.45;;;;;;;6.29;91.29199;95795.79;;;;
2020/10/19 03:53:55;;;;;;;17.8;12.45;;;;;;;6.29;91.29199;95795.79;;;;
2020/10/19 03:55:24;;;;;;;17.8;12.45;;;;;;;6.29;91.29199;95795.79;;;;
2020/10/19 03:56:39;;;;;;;17.8;12.45;;;;;;;6.29;91.29199;95795.79;;;;
2020/10/19 03:57:42;;;;;;;17.8;12.45;;;;;;;6.29;91.29199;95795.79;;;;
2020/10/19 03:58:49;;;;;;;17.8;12.45;;;;;;;6.29;91.29199;95795.79;;;;
2020/10/19 03:59:50;;;;;;;17.8;12.45;;;;;;;6.29;91.29199;95795.79;;;;
2020/10/19 04:00:51;;;;;;;17.8;12.45;;;;;;;6.29;91.29199;95795.79;;;;
2020/10/19 04:02:05;;;;;;;17.8;12.45;;;;;;;6.29;91.29199;95795.79;;;;
2020/10/19 04:03:22;;;;;;;21.8;14.4;;;;;;;6.29;91.52441;95791.35;;;;
2020/10/19 04:04:34;;;;;;;21.8;14.4;;;;;;;6.29;91.52441;95791.35;;;;
2020/10/19 04:05:50;;;;;;;21.8;14.4;;;;;;;6.29;91.52441;95791.35;;;;
2020/10/19 04:06:54;;;;;;;21.8;14.4;;;;;;;6.29;91.52441;95791.35;;;;
2020/10/19 04:08:09;;;;;;;21.8;14.4;;;;;;;6.29;91.52441;95791.35;;;;
2020/10/19 04:09:28;;;;;;;21.8;14.4;;;;;;;6.29;91.52441;95791.35;;;;
2020/10/19 04:10:30;;;;;;;21.8;14.4;;;;;;;6.29;91.52441;95791.35;;;;
2020/10/19 04:11:32;;;;;;;21.8;14.4;;;;;;;6.29;91.52441;95791.35;;;;
2020/10/19 04:12:33;;;;;;;21.8;14.4;;;;;;;6.29;91.52441;95791.35;;;;
2020/10/19 04:13:33;;;;;;;24.3;16.4;;;;;;;6.26;91.80078;95789.04;;;;
2020/10/19 04:14:34;;;;;;;24.3;16.4;;;;;;;6.26;91.80078;95789.04;;;;
2020/10/19 04:15:36;;;;;;;24.3;16.4;;;;;;;6.26;91.80078;95789.04;;;;
2020/10/19 04:16:37;;;;;;;24.3;16.4;;;;;;;6.26;91.80078;95789.04;;;;
2020/10/19 04:17:38;;;;;;;24.3;16.4;;;;;;;6.26;91.80078;95789.04;;;;
2020/10/19 04:18:39;;;;;;;24.3;16.4;;;;;;;6.26;91.80078;95789.04;;;;
2020/10/19 04:19:41;;;;;;;24.3;16.4;;;;;;;6.26;91.80078;95789.04;;;;
2020/10/19 04:20:41;;;;;;;24.3;16.4;;;;;;;6.26;91.80078;95789.04;;;;
2020/10/19 04:21:41;;;;;;;24.3;16.4;;;;;;;6.26;91.80078;95789.04;;;;
2020/10/19 04:22:42;;;;;;;24.3;16.4;;;;;;;6.26;91.80078;95789.04;;;;
2020/10/19 04:23:45;;;;;;;24.3;16.4;;;;;;;6.26;91.80078;95789.04;;;;
2020/10/19 04:24:48;;;;;;;25.3;16.4;;;;;;;6.31;91.99414;95800.83;;;;
2020/10/19 04:25:50;;;;;;;25.3;16.4;;;;;;;6.31;91.99414;95800.83;;;;
2020/10/19 04:26:52;;;;;;;25.3;16.4;;;;;;;6.31;91.99414;95800.83;;;;
2020/10/19 04:27:54;;;;;;;25.3;16.4;;;;;;;6.31;91.99414;95800.83;;;;
2020/10/19 04:28:59;;;;;;;25.3;16.4;;;;;;;6.31;91.99414;95800.83;;;;
2020/10/19 04:30:00;;;;;;;25.3;16.4;;;;;;;6.31;91.99414;95800.83;;;;
2020/10/19 04:31:10;;;;;;;25.3;16.4;;;;;;;6.31;91.99414;95800.83;;;;
2020/10/19 04:32:16;;;;;;;25.3;16.4;;;;;;;6.31;91.99414;95800.83;;;;
2020/10/19 04:33:32;;;;;;;25.3;16.4;;;;;;;6.31;91.99414;95800.83;;;;
2020/10/19 04:34:37;;;;;;;27.8;17.65;;;;;;;6.29;91.96875;95804.25;;;;
2020/10/19 04:35:39;;;;;;;27.8;17.65;;;;;;;6.29;91.96875;95804.25;;;;
2020/10/19 04:36:40;;;;;;;27.8;17.65;;;;;;;6.29;91.96875;95804.25;;;;
2020/10/19 04:37:42;;;;;;;27.8;17.65;;;;;;;6.29;91.96875;95804.25;;;;
2020/10/19 04:38:46;;;;;;;27.8;17.65;;;;;;;6.29;91.96875;95804.25;;;;
2020/10/19 04:39:50;;;;;;;27.8;17.65;;;;;;;6.29;91.96875;95804.25;;;;
2020/10/19 04:40:51;;;;;;;27.8;17.65;;;;;;;6.29;91.96875;95804.25;;;;
2020/10/19 04:41:55;;;;;;;27.8;17.65;;;;;;;6.29;91.96875;95804.25;;;;
2020/10/19 04:42:56;;;;;;;27.8;17.65;;;;;;;6.29;91.96875;95804.25;;;;
2020/10/19 04:44:08;;;;;;;27.8;17.65;;;;;;;6.29;91.96875;95804.25;;;;
2020/10/19 04:45:11;;;;;;;27.8;17.65;;;;;;;6.29;91.96875;95804.25;;;;
2020/10/19 04:46:12;;;;;;;28.35;17.1;;;;;;;6.22;92.05664;95787.8;;;;
2020/10/19 04:47:29;;;;;;;28.35;17.1;;;;;;;6.22;92.05664;95787.8;;;;
2020/10/19 04:48:33;;;;;;;28.35;17.1;;;;;;;6.22;92.05664;95787.8;;;;
2020/10/19 04:49:35;;;;;;;28.35;17.1;;;;;;;6.22;92.05664;95787.8;;;;
2020/10/19 04:50:36;;;;;;;28.35;17.1;;;;;;;6.22;92.05664;95787.8;;;;
2020/10/19 04:51:38;;;;;;;28.35;17.1;;;;;;;6.22;92.05664;95787.8;;;;
2020/10/19 04:52:40;;;;;;;28.35;17.1;;;;;;;6.22;92.05664;95787.8;;;;
2020/10/19 04:53:46;;;;;;;28.35;17.1;;;;;;;6.22;92.05664;95787.8;;;;
2020/10/19 04:54:46;;;;;;;28.35;17.1;;;;;;;6.22;92.05664;95787.8;;;;
2020/10/19 04:55:51;;;;;;;27.55;17.15;;;;;;;6.01;92.26465;95778.08;;;;
2020/10/19 04:56:57;;;;;;;27.55;17.15;;;;;;;6.01;92.26465;95778.08;;;;
2020/10/19 04:57:58;;;;;;;27.55;17.15;;;;;;;6.01;92.26465;95778.08;;;;
2020/10/19 04:59:04;;;;;;;27.55;17.15;;;;;;;6.01;92.26465;95778.08;;;;
2020/10/19 05:00:10;;;;;;;27.55;17.15;;;;;;;6.01;92.26465;95778.08;;;;
2020/10/19 05:01:13;;;;;;;27.55;17.15;;;;;;;6.01;92.26465;95778.08;;;;
2020/10/19 05:02:15;;;;;;;27.55;17.15;;;;;;;6.01;92.26465;95778.08;;;;
2020/10/19 05:03:25;;;;;;;27.55;17.15;;;;;;;6.01;92.26465;95778.08;;;;
2020/10/19 05:04:41;;;;;;;27.55;17.15;;;;;;;6.01;92.26465;95778.08;;;;
2020/10/19 05:05:42;;;;;;;27.55;17.15;;;;;;;6.01;92.26465;95778.08;;;;
2020/10/19 05:06:43;;;;;;;28.75;17.5;;;;;;;5.78;92.83594;95787.23;;;;
2020/10/19 05:07:54;;;;;;;28.75;17.5;;;;;;;5.78;92.83594;95787.23;;;;
2020/10/19 05:08:59;;;;;;;28.75;17.5;;;;;;;5.78;92.83594;95787.23;;;;
2020/10/19 05:10:23;;;;;;;28.75;17.5;;;;;;;5.78;92.83594;95787.23;;;;
2020/10/19 05:11:32;;;;;;;28.75;17.5;;;;;;;5.78;92.83594;95787.23;;;;
2020/10/19 05:12:33;;;;;;;28.75;17.5;;;;;;;5.78;92.83594;95787.23;;;;
2020/10/19 05:13:46;;;;;;;28.75;17.5;;;;;;;5.78;92.83594;95787.23;;;;
2020/10/19 05:14:52;;;;;;;28.75;17.5;;;;;;;5.78;92.83594;95787.23;;;;
2020/10/19 05:15:57;;;;;;;28.75;17.5;;;;;;;5.78;92.83594;95787.23;;;;
2020/10/19 05:17:04;;;;;;;28.75;17.5;;;;;;;5.78;92.83594;95787.23;;;;
2020/10/19 05:18:09;;;;;;;28.1;17.1;;;;;;;5.59;93.13379;95788.73;;;;
2020/10/19 05:19:20;;;;;;;28.1;17.1;;;;;;;5.59;93.13379;95788.73;;;;
2020/10/19 05:20:31;;;;;;;28.1;17.1;;;;;;;5.59;93.13379;95788.73;;;;
2020/10/19 05:21:35;;;;;;;28.1;17.1;;;;;;;5.59;93.13379;95788.73;;;;
2020/10/19 05:22:52;;;;;;;28.1;17.1;;;;;;;5.59;93.13379;95788.73;;;;
2020/10/19 05:24:02;;;;;;;28.1;17.1;;;;;;;5.59;93.13379;95788.73;;;;
2020/10/19 05:25:15;;;;;;;28.1;17.1;;;;;;;5.59;93.13379;95788.73;;;;
2020/10/19 05:26:25;;;;;;;28.1;17.1;;;;;;;5.59;93.13379;95788.73;;;;
2020/10/19 05:27:54;;;;;;;32.7;19.15;;;;;;;5.48;93.50977;95786.16;;;;
2020/10/19 05:29:10;;;;;;;32.7;19.15;;;;;;;5.48;93.50977;95786.16;;;;
2020/10/19 05:30:54;;;;;;;32.7;19.15;;;;;;;5.48;93.50977;95786.16;;;;
2020/10/19 05:32:14;;;;;;;32.7;19.15;;;;;;;5.48;93.50977;95786.16;;;;
2020/10/19 05:33:25;;;;;;;32.7;19.15;;;;;;;5.48;93.50977;95786.16;;;;
2020/10/19 05:35:12;;;;;;;32.7;19.15;;;;;;;5.48;93.50977;95786.16;;;;
2020/10/19 05:40:15;;;;;;;35.55001;19.4;;;;;;;5.48;93.66699;95795.53;;;;
2020/10/19 05:41:22;;;;;;;35.55001;19.4;;;;;;;5.48;93.66699;95795.53;;;;
2020/10/19 05:42:41;;;;;;;35.55001;19.4;;;;;;;5.48;93.66699;95795.53;;;;
2020/10/19 05:44:37;;;;;;;35.55001;19.4;;;;;;;5.48;93.66699;95795.53;;;;
2020/10/19 05:46:04;;;;;;;35.55001;19.4;;;;;;;5.48;93.66699;95795.53;;;;
2020/10/19 05:47:32;;;;;;;35.55001;19.4;;;;;;;5.48;93.66699;95795.53;;;;
2020/10/19 05:48:45;;;;;;;35.55001;19.4;;;;;;;5.48;93.66699;95795.53;;;;
2020/10/19 05:50:40;;;;;;;38.3;19.9;;;;;;;5.54;93.68164;95799.59;;;;
2020/10/19 05:52:12;;;;;;;38.3;19.9;;;;;;;5.54;93.68164;95799.59;;;;
2020/10/19 05:53:27;;;;;;;38.3;19.9;;;;;;;5.54;93.68164;95799.59;;;;
2020/10/19 05:54:30;;;;;;;38.3;19.9;;;;;;;5.54;93.68164;95799.59;;;;
2020/10/19 05:55:40;;;;;;;38.3;19.9;;;;;;;5.54;93.68164;95799.59;;;;
2020/10/19 05:56:51;;;;;;;38.3;19.9;;;;;;;5.54;93.68164;95799.59;;;;
2020/10/19 05:58:06;;;;;;;38.3;19.9;;;;;;;5.54;93.68164;95799.59;;;;
2020/10/19 05:59:12;;;;;;;38.3;19.9;;;;;;;5.54;93.68164;95799.59;;;;